createdAt,value
2023-05-20T00:00:11.542Z,12.30
2023-05-20T00:02:39.156Z,12.90
2023-05-20T00:05:07.270Z,13.00
2023-05-20T00:07:34.577Z,14.20
2023-05-20T00:10:01.477Z,8.90
2023-05-20T00:12:28.718Z,9.50
2023-05-20T00:14:56.318Z,11.30
2023-05-20T00:17:23.693Z,13.40
2023-05-20T00:20:02.444Z,11.70
2023-05-20T00:22:29.486Z,12.30
2023-05-20T00:24:56.653Z,12.70
2023-05-20T00:27:23.622Z,12.70
2023-05-20T00:29:50.520Z,12.80
2023-05-20T00:32:17.538Z,14.10
2023-05-20T00:34:45.294Z,12.20
2023-05-20T00:37:12.210Z,11.10
2023-05-20T00:39:39.367Z,12.40
2023-05-20T00:42:06.768Z,9.40
2023-05-20T00:44:34.028Z,13.00
2023-05-20T00:47:02.193Z,12.00
2023-05-20T00:49:29.238Z,11.50
2023-05-20T00:51:56.292Z,11.50
2023-05-20T00:54:23.126Z,12.30
2023-05-20T00:56:50.728Z,11.40
2023-05-20T00:59:17.964Z,10.70
2023-05-20T01:01:45.502Z,11.60
2023-05-20T01:04:13.205Z,12.60
2023-05-20T01:06:40.381Z,13.40
2023-05-20T01:09:08.615Z,12.80
2023-05-20T01:11:43.086Z,11.50
2023-05-20T01:14:13.478Z,9.80
2023-05-20T01:16:41.918Z,11.10
2023-05-20T01:19:22.619Z,10.50
2023-05-20T01:21:52.485Z,11.00
2023-05-20T01:24:19.769Z,12.40
2023-05-20T01:26:48.903Z,9.40
2023-05-20T01:29:18.939Z,12.10
2023-05-20T01:31:48.155Z,11.20
2023-05-20T01:34:16.608Z,11.20
2023-05-20T01:36:47.279Z,11.30
2023-05-20T01:39:15.075Z,11.20
2023-05-20T01:41:43.063Z,10.50
2023-05-20T01:44:10.895Z,10.90
2023-05-20T01:46:37.782Z,10.70
2023-05-20T01:49:04.973Z,12.20
2023-05-20T01:51:33.903Z,10.60
2023-05-20T01:54:01.448Z,10.20
2023-05-20T01:56:28.363Z,10.80
2023-05-20T01:58:55.524Z,8.80
2023-05-20T02:01:22.778Z,11.40
2023-05-20T02:03:59.245Z,10.30
2023-05-20T02:06:35.005Z,11.60
2023-05-20T02:09:08.564Z,9.70
2023-05-20T02:11:42.020Z,11.90
2023-05-20T02:14:09.197Z,8.60
2023-05-20T02:16:36.579Z,8.80
2023-05-20T02:19:03.891Z,10.60
2023-05-20T02:21:31.683Z,11.50
2023-05-20T02:23:58.813Z,9.70
2023-05-20T02:26:26.002Z,11.10
2023-05-20T02:28:53.174Z,12.40
2023-05-20T02:31:20.523Z,12.50
2023-05-20T02:33:47.412Z,12.80
2023-05-20T02:36:14.922Z,12.90
2023-05-20T02:38:41.968Z,12.60
2023-05-20T02:41:09.389Z,12.10
2023-05-20T02:43:36.993Z,9.60
2023-05-20T02:46:04.425Z,8.10
2023-05-20T02:48:31.519Z,9.70
2023-05-20T02:51:00.689Z,11.00
2023-05-20T02:53:27.528Z,11.70
2023-05-20T02:55:55.120Z,12.30
2023-05-20T02:58:26.876Z,11.50
2023-05-20T03:00:54.241Z,11.00
2023-05-20T03:03:21.228Z,9.00
2023-05-20T03:05:48.169Z,11.70
2023-05-20T03:08:15.675Z,11.00
2023-05-20T03:10:42.720Z,9.40
2023-05-20T03:13:11.584Z,11.20
2023-05-20T03:15:40.032Z,10.90
2023-05-20T03:18:08.848Z,10.80
2023-05-20T03:20:45.036Z,9.20
2023-05-20T03:23:12.470Z,10.20
2023-05-20T03:25:41.036Z,11.80
2023-05-20T03:28:07.950Z,12.70
2023-05-20T03:30:34.958Z,9.40
2023-05-20T03:33:03.490Z,12.50
2023-05-20T03:35:30.793Z,13.50
2023-05-20T03:37:58.991Z,13.60
2023-05-20T03:40:26.358Z,13.50
2023-05-20T03:42:53.675Z,14.40
2023-05-20T03:45:21.464Z,13.80
2023-05-20T03:47:48.637Z,12.60
2023-05-20T03:50:16.238Z,11.70
2023-05-20T03:52:43.366Z,9.60
2023-05-20T03:55:22.269Z,11.20
2023-05-20T03:57:49.443Z,9.70
2023-05-20T04:00:17.877Z,9.60
2023-05-20T04:02:45.126Z,9.60
2023-05-20T04:05:12.635Z,8.80
2023-05-20T04:07:39.625Z,8.70
2023-05-20T04:10:07.481Z,9.70
2023-05-20T04:12:36.578Z,9.90
2023-05-20T04:15:03.885Z,9.00
2023-05-20T04:17:32.237Z,6.40
2023-05-20T04:20:02.495Z,9.30
2023-05-20T04:22:29.432Z,7.90
2023-05-20T04:25:08.563Z,8.60
2023-05-20T04:27:36.285Z,9.60
2023-05-20T04:30:16.514Z,8.50
2023-05-20T04:32:43.473Z,9.20
2023-05-20T04:35:14.285Z,9.40
2023-05-20T04:37:42.753Z,8.10
2023-05-20T04:40:10.942Z,9.00
2023-05-20T04:42:38.557Z,8.40
2023-05-20T04:45:06.456Z,8.00
2023-05-20T04:47:38.945Z,8.20
2023-05-20T04:50:12.022Z,7.50
2023-05-20T04:52:39.839Z,7.40
2023-05-20T04:55:10.691Z,8.00
2023-05-20T05:00:12.750Z,4.40
2023-05-20T05:02:40.178Z,5.80
2023-05-20T05:05:13.350Z,6.70
2023-05-20T05:07:41.127Z,5.50
2023-05-20T05:10:09.236Z,6.00
2023-05-20T05:12:36.483Z,5.90
2023-05-20T05:15:03.830Z,5.70
2023-05-20T05:17:30.837Z,5.10
2023-05-20T05:19:57.908Z,5.70
2023-05-20T05:22:24.906Z,5.70
2023-05-20T05:24:51.952Z,5.40
2023-05-20T05:27:19.362Z,5.10
2023-05-20T05:29:46.709Z,4.70
2023-05-20T05:32:13.720Z,4.70
2023-05-20T05:34:41.516Z,4.80
2023-05-20T05:37:08.871Z,3.60
2023-05-20T05:39:38.082Z,4.50
2023-05-20T05:42:05.703Z,4.40
2023-05-20T05:44:32.618Z,4.50
2023-05-20T05:46:59.686Z,4.50
2023-05-20T05:49:26.617Z,4.30
2023-05-20T05:51:53.957Z,4.80
2023-05-20T05:54:21.674Z,3.80
2023-05-20T05:56:49.116Z,5.50
2023-05-20T05:59:16.611Z,5.20
2023-05-20T06:01:43.840Z,4.80
2023-05-20T06:04:14.584Z,5.70
2023-05-20T06:06:42.573Z,4.90
2023-05-20T06:09:09.922Z,4.50
2023-05-20T06:11:37.031Z,4.10
2023-05-20T06:14:04.514Z,5.40
2023-05-20T06:16:31.865Z,4.90
2023-05-20T06:19:00.204Z,6.30
2023-05-20T06:21:28.738Z,5.00
2023-05-20T06:23:55.804Z,5.20
2023-05-20T06:26:23.165Z,5.80
2023-05-20T06:28:50.628Z,6.10
2023-05-20T06:31:18.180Z,6.50
2023-05-20T06:33:45.433Z,5.40
2023-05-20T06:36:12.442Z,5.20
2023-05-20T06:38:39.415Z,6.50
2023-05-20T06:41:06.736Z,7.10
2023-05-20T06:43:34.240Z,7.10
2023-05-20T06:46:01.526Z,6.50
2023-05-20T06:48:28.948Z,7.40
2023-05-20T06:50:57.384Z,5.40
2023-05-20T06:53:24.422Z,6.70
2023-05-20T06:55:51.373Z,6.80
2023-05-20T06:58:18.918Z,6.80
2023-05-20T07:00:47.647Z,6.70
2023-05-20T07:03:14.755Z,5.90
2023-05-20T07:05:41.690Z,5.10
2023-05-20T07:08:08.939Z,6.60
2023-05-20T07:10:36.331Z,7.10
2023-05-20T07:13:04.156Z,6.10
2023-05-20T07:15:31.444Z,5.40
2023-05-20T07:17:59.676Z,6.40
2023-05-20T07:20:26.723Z,6.00
2023-05-20T07:22:53.780Z,5.90
2023-05-20T07:25:20.918Z,6.60
2023-05-20T07:27:48.279Z,6.40
2023-05-20T07:30:15.585Z,6.20
2023-05-20T07:32:42.750Z,6.20
2023-05-20T07:35:10.026Z,6.20
2023-05-20T07:37:36.857Z,4.80
2023-05-20T07:40:05.727Z,5.80
2023-05-20T07:42:32.946Z,6.00
2023-05-20T07:45:00.348Z,5.80
2023-05-20T07:47:27.722Z,6.30
2023-05-20T07:49:54.761Z,7.40
2023-05-20T07:52:22.155Z,6.70
2023-05-20T07:54:49.558Z,6.60
2023-05-20T07:57:16.964Z,5.60
2023-05-20T07:59:45.329Z,5.60
2023-05-20T08:02:12.400Z,7.00
2023-05-20T08:04:39.439Z,6.40
2023-05-20T08:07:06.849Z,6.60
2023-05-20T08:09:35.873Z,7.50
2023-05-20T08:12:03.011Z,5.70
2023-05-20T08:14:30.470Z,6.90
2023-05-20T08:16:57.898Z,8.10
2023-05-20T08:19:25.249Z,7.80
2023-05-20T08:21:52.632Z,6.10
2023-05-20T08:24:19.983Z,6.00
2023-05-20T08:26:47.005Z,7.00
2023-05-20T08:29:14.241Z,6.10
2023-05-20T08:31:41.805Z,7.00
2023-05-20T08:34:08.724Z,7.50
2023-05-20T08:36:36.546Z,7.80
2023-05-20T08:39:04.687Z,7.30
2023-05-20T08:41:31.744Z,7.00
2023-05-20T08:44:02.191Z,6.00
2023-05-20T08:46:29.301Z,7.50
2023-05-20T08:48:57.189Z,5.90
2023-05-20T08:51:27.154Z,6.90
2023-05-20T08:53:55.129Z,6.60
2023-05-20T08:56:24.059Z,6.90
2023-05-20T08:58:51.686Z,7.00
2023-05-20T09:01:19.774Z,5.50
2023-05-20T09:03:47.110Z,7.00
2023-05-20T09:06:21.644Z,7.40
2023-05-20T09:08:53.026Z,5.70
2023-05-20T09:11:22.601Z,7.30
2023-05-20T09:14:02.088Z,6.40
2023-05-20T09:16:29.863Z,7.00
2023-05-20T09:18:57.912Z,7.40
2023-05-20T09:21:31.751Z,7.20
2023-05-20T09:24:02.997Z,7.90
2023-05-20T09:26:42.545Z,8.10
2023-05-20T09:29:09.613Z,7.80
2023-05-20T09:31:39.264Z,7.80
2023-05-20T09:34:07.124Z,6.30
2023-05-20T09:36:35.896Z,8.00
2023-05-20T09:39:05.539Z,8.80
2023-05-20T09:41:58.277Z,8.80
2023-05-20T09:44:26.137Z,6.90
2023-05-20T09:46:55.084Z,8.20
2023-05-20T09:49:24.360Z,6.90
2023-05-20T09:51:53.110Z,7.40
2023-05-20T09:54:21.528Z,8.70
2023-05-20T09:56:50.022Z,7.70
2023-05-20T09:59:18.631Z,8.70
2023-05-20T10:01:47.053Z,8.20
2023-05-20T10:04:17.673Z,7.20
2023-05-20T10:07:06.347Z,9.30
2023-05-20T10:10:13.510Z,9.40
2023-05-20T10:12:48.259Z,6.80
2023-05-20T10:15:39.636Z,8.70
2023-05-20T10:18:28.495Z,8.10
2023-05-20T10:20:55.783Z,8.70
2023-05-20T10:23:31.859Z,8.10
2023-05-20T10:25:59.865Z,7.30
2023-05-20T10:28:31.910Z,6.70
2023-05-20T10:31:00.948Z,6.50
2023-05-20T10:33:28.894Z,7.00
2023-05-20T10:35:59.873Z,7.20
2023-05-20T10:38:27.209Z,10.00
2023-05-20T10:40:54.530Z,9.10
2023-05-20T10:43:29.528Z,8.60
2023-05-20T10:45:58.441Z,9.40
2023-05-20T10:48:31.885Z,9.70
2023-05-20T10:51:06.424Z,10.10
2023-05-20T10:53:41.664Z,10.00
2023-05-20T10:56:19.436Z,9.90
2023-05-20T10:58:46.962Z,11.70
2023-05-20T11:01:15.547Z,9.40
2023-05-20T11:03:45.476Z,11.30
2023-05-20T11:06:26.683Z,9.40
2023-05-20T11:08:54.558Z,8.70
2023-05-20T11:11:23.226Z,10.60
2023-05-20T11:13:53.499Z,12.60
2023-05-20T11:16:23.786Z,9.70
2023-05-20T11:21:19.974Z,10.60
2023-05-20T11:23:47.284Z,7.90
2023-05-20T11:26:14.493Z,10.30
2023-05-20T11:28:46.525Z,10.40
2023-05-20T11:31:13.959Z,9.70
2023-05-20T11:33:44.266Z,9.30
2023-05-20T11:36:26.828Z,10.60
2023-05-20T11:38:58.149Z,10.20
2023-05-20T11:41:26.321Z,9.60
2023-05-20T11:44:01.039Z,10.10
2023-05-20T11:46:28.725Z,9.90
2023-05-20T11:48:56.929Z,8.10
2023-05-20T11:51:32.942Z,10.70
2023-05-20T11:54:04.287Z,10.90
2023-05-20T11:56:37.501Z,10.60
2023-05-20T11:59:06.750Z,10.20
2023-05-20T12:01:38.048Z,9.80
2023-05-20T12:04:06.099Z,10.10
2023-05-20T12:06:33.946Z,10.10
2023-05-20T12:09:09.453Z,10.40
2023-05-20T12:11:40.072Z,10.20
2023-05-20T12:14:08.560Z,11.80
2023-05-20T12:16:36.977Z,10.70
2023-05-20T12:19:04.557Z,10.60
2023-05-20T12:21:31.888Z,11.90
2023-05-20T12:24:07.319Z,11.20
2023-05-20T12:26:35.769Z,10.30
2023-05-20T12:29:02.908Z,11.70
2023-05-20T12:31:31.661Z,11.30
2023-05-20T12:34:00.203Z,10.30
2023-05-20T12:36:28.251Z,11.70
2023-05-20T12:38:55.216Z,10.40
2023-05-20T12:41:23.224Z,11.50
2023-05-20T12:43:50.363Z,9.40
2023-05-20T12:46:17.378Z,12.00
2023-05-20T12:48:44.657Z,11.30
2023-05-20T12:51:11.586Z,12.60
2023-05-20T12:53:38.948Z,11.90
2023-05-20T12:56:07.348Z,8.40
2023-05-20T12:58:34.958Z,8.50
2023-05-20T13:01:02.024Z,10.10
2023-05-20T13:03:29.352Z,11.40
2023-05-20T13:05:56.518Z,11.40
2023-05-20T13:08:23.666Z,11.40
2023-05-20T13:10:50.802Z,11.20
2023-05-20T13:13:22.049Z,11.60
2023-05-20T13:15:52.879Z,11.80
2023-05-20T13:18:20.445Z,11.30
2023-05-20T13:20:48.051Z,11.90
2023-05-20T13:23:15.279Z,11.00
2023-05-20T13:25:42.492Z,10.90
2023-05-20T13:28:10.214Z,10.40
2023-05-20T13:30:37.870Z,9.50
2023-05-20T13:33:05.296Z,11.60
2023-05-20T13:35:32.413Z,11.30
2023-05-20T13:37:59.534Z,10.40
2023-05-20T13:40:27.090Z,11.00
2023-05-20T13:42:55.113Z,10.70
2023-05-20T13:45:23.648Z,11.40
2023-05-20T13:47:50.631Z,10.80
2023-05-20T13:50:18.192Z,7.90
2023-05-20T13:52:45.290Z,10.50
2023-05-20T13:55:13.147Z,11.20
2023-05-20T13:57:40.531Z,12.40
2023-05-20T14:00:08.768Z,8.50
2023-05-20T14:02:36.202Z,11.30
2023-05-20T14:05:03.930Z,11.50
2023-05-20T14:07:30.970Z,10.90
2023-05-20T14:09:58.242Z,11.50
2023-05-20T14:12:25.325Z,9.60
2023-05-20T14:14:52.445Z,11.00
2023-05-20T14:17:20.104Z,10.50
2023-05-20T14:19:47.356Z,9.90
2023-05-20T14:22:16.003Z,10.60
2023-05-20T14:24:42.953Z,11.30
2023-05-20T14:27:12.064Z,10.80
2023-05-20T14:29:39.302Z,10.60
2023-05-20T14:32:06.677Z,10.70
2023-05-20T14:34:33.819Z,11.00
2023-05-20T14:37:06.907Z,11.20
2023-05-20T14:39:33.923Z,9.20
2023-05-20T14:42:00.974Z,10.50
2023-05-20T14:44:28.124Z,10.40
2023-05-20T14:46:55.394Z,10.20
2023-05-20T14:49:23.298Z,10.60
2023-05-20T14:52:01.628Z,9.90
2023-05-20T14:54:28.784Z,10.00
2023-05-20T14:56:55.955Z,10.10
2023-05-20T14:59:22.982Z,10.10
2023-05-20T15:01:50.352Z,9.70
2023-05-20T15:04:17.379Z,9.90
2023-05-20T15:06:44.532Z,9.50
2023-05-20T15:09:12.177Z,10.50
2023-05-20T15:11:39.328Z,8.30
2023-05-20T15:14:06.713Z,10.10
2023-05-20T15:16:33.930Z,9.60
2023-05-20T15:19:01.654Z,8.30
2023-05-20T15:21:28.746Z,10.40
2023-05-20T15:23:56.094Z,8.50
2023-05-20T15:26:23.343Z,7.60
2023-05-20T15:28:50.721Z,9.70
2023-05-20T15:31:17.965Z,10.20
2023-05-20T15:33:45.232Z,10.40
2023-05-20T15:36:12.244Z,9.60
2023-05-20T15:38:39.281Z,9.20
2023-05-20T15:41:07.047Z,9.30
2023-05-20T15:43:34.531Z,8.50
2023-05-20T15:46:01.676Z,8.70
2023-05-20T15:48:28.934Z,9.40
2023-05-20T15:50:56.306Z,9.40
2023-05-20T15:53:23.452Z,9.80
2023-05-20T15:55:52.021Z,9.30
2023-05-20T15:58:19.031Z,9.30
2023-05-20T16:00:46.613Z,9.60
2023-05-20T16:03:13.741Z,9.50
2023-05-20T16:05:41.130Z,9.30
2023-05-20T16:08:08.537Z,10.00
2023-05-20T16:10:36.849Z,9.60
2023-05-20T16:13:04.344Z,9.30
2023-05-20T16:15:36.791Z,9.60
2023-05-20T16:18:04.544Z,9.80
2023-05-20T16:20:31.881Z,9.80
2023-05-20T16:23:02.134Z,9.70
2023-05-20T16:25:30.009Z,8.50
2023-05-20T16:27:58.947Z,8.80
2023-05-20T16:30:26.195Z,9.50
2023-05-20T16:32:53.503Z,9.20
2023-05-20T16:35:21.619Z,9.00
2023-05-20T16:37:49.806Z,10.30
2023-05-20T16:40:17.254Z,9.50
2023-05-20T16:42:45.190Z,10.20
2023-05-20T16:45:12.451Z,10.10
2023-05-20T16:47:39.678Z,10.10
2023-05-20T16:50:07.558Z,11.00
2023-05-20T16:52:36.257Z,10.80
2023-05-20T16:55:04.038Z,10.30
2023-05-20T16:57:31.912Z,9.40
2023-05-20T17:00:09.680Z,10.30
2023-05-20T17:02:36.942Z,8.50
2023-05-20T17:05:04.690Z,10.40
2023-05-20T17:07:31.852Z,9.80
2023-05-20T17:09:59.076Z,10.60
2023-05-20T17:12:37.194Z,10.30
2023-05-20T17:15:06.410Z,9.70
2023-05-20T17:17:33.628Z,10.20
2023-05-20T17:20:12.704Z,10.70
2023-05-20T17:22:40.104Z,10.70
2023-05-20T17:25:07.820Z,10.90
2023-05-20T17:27:34.704Z,9.80
2023-05-20T17:30:01.672Z,11.00
2023-05-20T17:32:28.714Z,10.70
2023-05-20T17:34:56.030Z,10.50
2023-05-20T17:37:23.230Z,10.10
2023-05-20T17:39:50.354Z,10.60
2023-05-20T17:42:17.549Z,11.60
2023-05-20T17:44:44.964Z,11.40
2023-05-20T17:47:12.188Z,11.00
2023-05-20T17:49:39.145Z,11.20
2023-05-20T17:52:06.682Z,11.50
2023-05-20T17:54:34.379Z,10.90
2023-05-20T17:57:01.497Z,10.20
2023-05-20T17:59:29.214Z,10.70
2023-05-20T18:01:57.139Z,10.60
2023-05-20T18:04:24.279Z,11.30
2023-05-20T18:06:51.398Z,9.10
2023-05-20T18:09:46.865Z,11.70
2023-05-20T18:12:20.613Z,11.40
2023-05-20T18:14:56.112Z,11.40
2023-05-20T18:17:27.532Z,12.30
2023-05-20T18:20:07.501Z,11.40
2023-05-20T18:22:41.650Z,11.20
2023-05-20T18:25:22.513Z,11.30
2023-05-20T18:27:57.019Z,11.30
2023-05-20T18:30:24.516Z,10.30
2023-05-20T18:32:52.203Z,10.00
2023-05-20T18:35:19.550Z,10.60
2023-05-20T18:37:46.750Z,10.90
2023-05-20T18:40:25.433Z,11.70
2023-05-20T18:42:52.756Z,9.80
2023-05-20T18:45:19.902Z,11.30
2023-05-20T18:47:47.496Z,12.50
2023-05-20T18:50:14.715Z,11.60
2023-05-20T18:52:42.133Z,11.70
2023-05-20T18:55:09.517Z,11.20
2023-05-20T18:57:36.931Z,11.40
2023-05-20T19:00:07.893Z,12.10
2023-05-20T19:02:34.967Z,12.50
2023-05-20T19:05:02.413Z,12.70
2023-05-20T19:07:29.354Z,10.90
2023-05-20T19:09:57.679Z,10.70
2023-05-20T19:12:25.128Z,11.60
2023-05-20T19:14:52.328Z,11.80
2023-05-20T19:17:21.086Z,11.20
2023-05-20T19:19:49.498Z,10.20
2023-05-20T19:22:16.958Z,11.50
2023-05-20T19:24:56.139Z,11.00
2023-05-20T19:27:23.464Z,11.50
2023-05-20T19:29:50.607Z,11.40
2023-05-20T19:32:17.828Z,11.40
2023-05-20T19:34:45.095Z,11.60
2023-05-20T19:37:12.474Z,11.30
2023-05-20T19:39:39.397Z,11.50
2023-05-20T19:42:06.620Z,12.10
2023-05-20T19:44:34.529Z,11.80
2023-05-20T19:47:02.286Z,12.80
2023-05-20T19:49:29.838Z,12.60
2023-05-20T19:51:57.064Z,12.10
2023-05-20T19:54:24.036Z,13.30
2023-05-20T19:56:51.674Z,12.30
2023-05-20T19:59:18.860Z,11.10
2023-05-20T20:01:46.613Z,12.10
2023-05-20T20:04:14.377Z,10.80
2023-05-20T20:06:41.748Z,11.90
2023-05-20T20:09:08.718Z,12.80
2023-05-20T20:11:35.770Z,12.10
2023-05-20T20:14:02.714Z,12.10
2023-05-20T20:16:31.003Z,10.80
2023-05-20T20:18:58.443Z,12.10
2023-05-20T20:21:26.384Z,11.60
2023-05-20T20:23:53.764Z,11.60
2023-05-20T20:26:24.005Z,12.00
2023-05-20T20:28:51.174Z,11.90
2023-05-20T20:31:18.461Z,12.00
2023-05-20T20:33:45.888Z,11.70
2023-05-20T20:36:13.255Z,11.20
2023-05-20T20:38:40.371Z,10.70
2023-05-20T20:41:10.213Z,9.70
2023-05-20T20:43:38.767Z,10.30
2023-05-20T20:46:06.791Z,9.90
2023-05-20T20:48:35.007Z,9.20
2023-05-20T20:51:02.533Z,10.60
2023-05-20T20:53:29.655Z,10.20
2023-05-20T20:55:57.503Z,10.40
2023-05-20T20:58:25.266Z,10.90
2023-05-20T21:00:53.443Z,11.00
2023-05-20T21:03:24.459Z,10.70
2023-05-20T21:05:52.140Z,10.40
2023-05-20T21:08:22.489Z,10.30
2023-05-20T21:10:49.446Z,10.40
2023-05-20T21:13:16.572Z,10.70
2023-05-20T21:15:46.690Z,10.40
2023-05-20T21:18:14.865Z,9.90
2023-05-20T21:20:41.979Z,10.30
2023-05-20T21:23:09.339Z,10.50
2023-05-20T21:25:36.569Z,11.00
2023-05-20T21:28:04.209Z,9.70
2023-05-20T21:30:31.569Z,8.70
2023-05-20T21:32:58.587Z,8.30
2023-05-20T21:35:25.525Z,9.30
2023-05-20T21:37:52.625Z,9.20
2023-05-20T21:40:19.922Z,10.20
2023-05-20T21:42:49.606Z,10.00
2023-05-20T21:45:18.006Z,10.20
2023-05-20T21:47:46.597Z,7.40
2023-05-20T21:50:13.561Z,8.90
2023-05-20T21:52:40.973Z,8.30
2023-05-20T21:55:09.847Z,8.90
2023-05-20T21:57:37.155Z,9.30
2023-05-20T22:00:10.622Z,9.90
2023-05-20T22:02:37.980Z,9.30
2023-05-20T22:05:05.517Z,9.60
2023-05-20T22:07:33.482Z,9.60
2023-05-20T22:10:02.463Z,8.80
2023-05-20T22:12:29.738Z,8.60
2023-05-20T22:14:57.096Z,9.50
2023-05-20T22:17:24.290Z,9.80
2023-05-20T22:19:52.092Z,9.10
2023-05-20T22:22:19.034Z,8.90
2023-05-20T22:24:46.188Z,8.40
2023-05-20T22:27:13.440Z,7.90
2023-05-20T22:29:40.290Z,8.60
2023-05-20T22:32:07.217Z,9.50
2023-05-20T22:34:34.163Z,8.00
2023-05-20T22:37:01.114Z,9.20
2023-05-20T22:39:28.148Z,8.00
2023-05-20T22:41:54.994Z,9.60
2023-05-20T22:44:21.925Z,8.70
2023-05-20T22:46:48.770Z,8.70
2023-05-20T22:49:16.951Z,9.00
2023-05-20T22:51:44.093Z,9.20
2023-05-20T22:54:11.246Z,9.60
2023-05-20T22:56:38.198Z,7.30
2023-05-20T22:59:05.123Z,9.40
2023-05-20T23:01:32.522Z,8.70
2023-05-20T23:03:59.770Z,9.30
2023-05-20T23:06:27.186Z,6.90
2023-05-20T23:08:54.132Z,8.80
2023-05-20T23:11:21.068Z,8.30
2023-05-20T23:13:47.912Z,9.10
2023-05-20T23:16:14.792Z,9.20
2023-05-20T23:18:41.849Z,9.60
2023-05-20T23:21:08.856Z,9.70
2023-05-20T23:23:35.692Z,9.30
2023-05-20T23:26:02.521Z,8.20
2023-05-20T23:28:29.371Z,8.50
2023-05-20T23:30:56.840Z,9.90
2023-05-20T23:33:25.674Z,8.90
2023-05-20T23:35:53.471Z,9.70
2023-05-20T23:38:20.422Z,10.10
2023-05-20T23:40:48.271Z,9.40
2023-05-20T23:43:15.231Z,7.80
2023-05-20T23:45:42.368Z,8.90
2023-05-20T23:48:13.767Z,9.40
2023-05-20T23:50:40.983Z,9.60
2023-05-20T23:53:07.916Z,6.90
2023-05-20T23:55:35.682Z,9.30
2023-05-20T23:58:02.823Z,8.90
